Time;durP1;ratioP1;P1;durP2;ratioP2;P2;SDS_P1;SDS_P2;PMS_P1;PMS_P2;Temp;Humidity;BMP_temperature;BMP_pressure;BME280_temperature;BME280_humidity;BME280_pressure;Samples;Min_cycle;Max_cycle;Signal;HPM_P1;HPM_P2
2022/10/15 00:00:38;;;;;;;41.28;26.60;;;7.10;99.90;;;;;;5112691;28;20031;-74
2022/10/15 00:03:03;;;;;;;43.30;26.50;;;7.10;99.90;;;;;;5111870;28;20011;-74
2022/10/15 00:05:29;;;;;;;40.95;25.25;;;7.00;99.90;;;;;;5113924;28;20031;-71
2022/10/15 00:07:55;;;;;;;49.63;26.95;;;6.90;99.90;;;;;;5113818;28;20047;-72
2022/10/15 00:10:21;;;;;;;46.15;26.25;;;6.90;99.90;;;;;;5113894;28;20043;-72
2022/10/15 00:12:46;;;;;;;50.85;28.65;;;6.80;99.90;;;;;;5113895;28;20020;-74
2022/10/15 00:15:12;;;;;;;46.58;28.60;;;6.70;99.90;;;;;;5102372;28;20070;-74
2022/10/15 00:17:38;;;;;;;50.42;29.90;;;6.70;99.90;;;;;;5093430;28;20027;-71
2022/10/15 00:20:08;;;;;;;51.10;30.45;;;6.60;99.90;;;;;;5093533;28;20060;-71
2022/10/15 00:22:33;;;;;;;53.10;30.35;;;6.60;99.90;;;;;;5093425;28;20039;-74
2022/10/15 00:24:59;;;;;;;46.50;29.13;;;6.60;99.90;;;;;;5092147;28;20024;-71
2022/10/15 00:27:25;;;;;;;51.15;30.55;;;6.50;99.90;;;;;;5092013;28;20087;-71
2022/10/15 00:29:50;;;;;;;42.80;25.80;;;6.40;99.90;;;;;;5097360;28;20449;-70
2022/10/15 00:32:16;;;;;;;42.15;25.33;;;6.40;99.90;;;;;;5112447;28;20024;-72
2022/10/15 00:34:42;;;;;;;45.15;26.92;;;6.40;99.90;;;;;;5113387;28;20100;-71
2022/10/15 00:37:08;;;;;;;48.03;29.17;;;6.40;99.90;;;;;;5112328;28;20076;-74
2022/10/15 00:39:33;;;;;;;47.97;29.40;;;6.30;99.90;;;;;;5113622;28;20141;-71
2022/10/15 00:41:59;;;;;;;49.60;29.15;;;6.30;99.90;;;;;;5113630;28;20031;-71
2022/10/15 00:44:25;;;;;;;44.33;28.15;;;6.30;99.90;;;;;;5113718;28;20019;-71
2022/10/15 00:46:56;;;;;;;43.63;25.80;;;6.20;99.90;;;;;;5112015;28;20028;-71
2022/10/15 00:49:33;;;;;;;40.30;25.15;;;6.20;99.90;;;;;;5113550;28;20028;-74
2022/10/15 00:52:06;;;;;;;48.65;25.48;;;6.10;99.90;;;;;;5113552;28;20651;-74
2022/10/15 00:54:39;;;;;;;40.65;23.52;;;6.10;99.90;;;;;;5113573;28;20038;-73
2022/10/15 00:57:06;;;;;;;35.38;21.63;;;6.10;99.90;;;;;;5113607;28;20035;-74
2022/10/15 00:59:33;;;;;;;43.92;22.73;;;6.10;99.90;;;;;;5112225;28;20110;-72
2022/10/15 01:02:00;;;;;;;36.70;23.08;;;6.00;99.90;;;;;;5113457;28;20015;-71
2022/10/15 01:04:26;;;;;;;51.88;27.58;;;6.00;99.90;;;;;;5111673;28;20027;-71
2022/10/15 01:06:52;;;;;;;47.15;27.23;;;5.90;99.90;;;;;;5113278;28;20026;-74
2022/10/15 01:09:18;;;;;;;51.88;32.38;;;5.90;99.90;;;;;;5113414;28;20114;-74
2022/10/15 01:11:47;;;;;;;44.40;26.60;;;5.90;99.90;;;;;;5113372;28;20384;-71
2022/10/15 01:14:19;;;;;;;43.70;26.10;;;5.90;99.90;;;;;;5111193;28;20016;-71
2022/10/15 01:16:50;;;;;;;50.10;29.13;;;5.90;99.90;;;;;;5095335;28;20032;-74
2022/10/15 01:19:34;;;;;;;49.78;25.70;;;5.90;99.90;;;;;;5095192;28;20081;-74
2022/10/15 01:22:05;;;;;;;42.97;25.35;;;6.00;99.90;;;;;;5096409;28;20104;-71
2022/10/15 01:24:42;;;;;;;38.55;24.45;;;6.00;99.90;;;;;;5096422;28;20031;-73
2022/10/15 01:27:30;;;;;;;40.38;24.35;;;6.10;99.90;;;;;;5095157;28;20429;-74
2022/10/15 01:30:13;;;;;;;38.60;23.30;;;6.10;99.90;;;;;;5101426;28;20089;-73
2022/10/15 01:33:01;;;;;;;42.03;26.90;;;6.20;99.90;;;;;;5116793;28;20104;-74
2022/10/15 01:35:36;;;;;;;40.13;25.77;;;6.20;99.90;;;;;;5115258;28;20043;-70
2022/10/15 01:38:30;;;;;;;44.65;27.45;;;6.20;99.90;;;;;;5116630;27;20027;-74
2022/10/15 01:41:13;;;;;;;43.83;26.48;;;6.30;99.90;;;;;;5116532;28;20019;-71
2022/10/15 01:43:50;;;;;;;39.95;25.67;;;6.20;99.90;;;;;;5116519;28;20484;-74
2022/10/15 01:46:41;;;;;;;42.17;24.73;;;6.20;99.90;;;;;;5115197;28;20020;-70
2022/10/15 01:49:10;;;;;;;42.20;24.95;;;6.30;99.90;;;;;;5116325;28;20032;-74
2022/10/15 01:51:39;;;;;;;41.55;25.77;;;6.30;99.90;;;;;;5116328;28;20020;-73
2022/10/15 01:54:08;;;;;;;40.75;24.02;;;6.30;99.90;;;;;;5114956;28;20020;-71
2022/10/15 01:56:36;;;;;;;41.53;24.98;;;6.30;99.90;;;;;;5116282;28;20052;-74
2022/10/15 01:59:03;;;;;;;46.13;27.42;;;6.30;99.90;;;;;;5110979;28;20027;-74
2022/10/15 02:01:28;;;;;;;43.20;28.10;;;6.20;99.90;;;;;;5094438;28;20024;-74
2022/10/15 02:03:54;;;;;;;42.78;26.30;;;6.20;99.90;;;;;;5094382;28;20027;-71
2022/10/15 02:06:33;;;;;;;40.95;25.67;;;6.20;99.90;;;;;;5095640;28;20027;-70
2022/10/15 02:09:17;;;;;;;41.45;24.38;;;6.20;99.90;;;;;;5094137;28;20040;-70
2022/10/15 02:12:01;;;;;;;44.70;26.52;;;6.20;99.90;;;;;;5094270;28;20388;-71
2022/10/15 02:14:34;;;;;;;44.00;28.05;;;6.20;99.90;;;;;;5094063;28;20033;-70
2022/10/15 02:17:09;;;;;;;43.80;26.75;;;6.20;99.90;;;;;;5095592;28;20046;-70
2022/10/15 02:20:27;;;;;;;45.13;28.33;;;6.20;99.90;;;;;;5095379;28;20081;-70
2022/10/15 02:23:11;;;;;;;38.47;24.00;;;6.20;99.90;;;;;;5077317;28;20036;-74
2022/10/15 02:25:39;;;;;;;40.28;23.55;;;6.20;99.90;;;;;;5093122;28;20020;-71
2022/10/15 02:28:06;;;;;;;44.28;25.85;;;6.30;99.90;;;;;;5095081;28;20051;-71
2022/10/15 02:30:35;;;;;;;39.28;25.35;;;6.30;99.90;;;;;;5105729;28;20473;-71
2022/10/15 02:33:01;;;;;;;49.60;28.88;;;6.40;99.90;;;;;;5115512;28;20437;-73
2022/10/15 02:35:27;;;;;;;58.42;30.90;;;6.50;99.90;;;;;;5115337;27;20138;-74
2022/10/15 02:37:54;;;;;;;65.15;31.27;;;6.70;99.90;;;;;;5115505;27;20024;-71
2022/10/15 02:40:27;;;;;;;56.40;30.88;;;6.70;99.90;;;;;;5115298;28;20366;-71
2022/10/15 02:42:53;;;;;;;62.08;32.22;;;6.80;99.90;;;;;;5114174;28;20019;-73
2022/10/15 02:45:19;;;;;;;61.22;34.17;;;6.80;99.90;;;;;;5113961;28;20030;-74
2022/10/15 02:47:45;;;;;;;55.83;32.08;;;6.80;99.90;;;;;;5115218;28;20087;-74
2022/10/15 02:50:10;;;;;;;64.78;31.55;;;6.90;99.90;;;;;;5113818;28;20114;-71
2022/10/15 02:52:36;;;;;;;58.80;32.80;;;6.90;99.90;;;;;;5115180;28;20020;-72
2022/10/15 02:55:01;;;;;;;62.45;33.83;;;6.90;99.90;;;;;;5114981;28;20024;-71
2022/10/15 02:57:27;;;;;;;58.38;31.33;;;7.00;99.90;;;;;;5115032;28;20495;-71
2022/10/15 02:59:53;;;;;;;58.55;32.97;;;7.00;99.90;;;;;;5114940;28;20023;-74
2022/10/15 03:02:19;;;;;;;53.83;29.55;;;6.90;99.90;;;;;;5114981;28;20012;-73
2022/10/15 03:04:44;;;;;;;56.25;30.58;;;6.90;99.90;;;;;;5114886;28;20658;-74
2022/10/15 03:07:10;;;;;;;60.10;32.08;;;6.90;99.90;;;;;;5114668;28;20106;-71
2022/10/15 03:09:36;;;;;;;56.58;32.03;;;6.80;99.90;;;;;;5114630;28;20031;-71
2022/10/15 03:12:01;;;;;;;56.78;31.88;;;6.80;99.90;;;;;;5114838;28;20023;-72
2022/10/15 03:14:27;;;;;;;58.10;31.00;;;6.90;99.90;;;;;;5109799;28;20020;-73
2022/10/15 03:16:52;;;;;;;61.00;33.42;;;6.90;99.90;;;;;;5094360;28;20024;-72
2022/10/15 03:19:18;;;;;;;65.57;35.25;;;7.00;99.90;;;;;;5094270;28;20099;-71
2022/10/15 03:21:44;;;;;;;61.70;34.03;;;7.00;99.90;;;;;;5092913;28;20027;-71
2022/10/15 03:24:09;;;;;;;63.85;35.30;;;7.10;99.90;;;;;;5094231;28;20024;-74
2022/10/15 03:26:35;;;;;;;63.63;32.10;;;7.10;99.90;;;;;;5094126;28;20024;-74
2022/10/15 03:29:01;;;;;;;67.93;34.72;;;7.20;99.90;;;;;;5092722;28;20123;-71
2022/10/15 03:31:26;;;;;;;67.60;33.13;;;7.20;99.90;;;;;;5098875;28;20031;-71
2022/10/15 03:33:52;;;;;;;60.42;34.72;;;7.30;99.90;;;;;;5094041;28;20539;-71
2022/10/15 03:36:17;;;;;;;58.72;31.73;;;7.30;99.90;;;;;;5093701;28;20054;-71
2022/10/15 03:38:43;;;;;;;60.28;32.80;;;7.30;99.90;;;;;;5094030;28;20067;-73
2022/10/15 03:41:08;;;;;;;61.17;32.90;;;7.30;99.90;;;;;;5093857;28;20032;-71
2022/10/15 03:43:34;;;;;;;62.75;33.88;;;7.40;99.90;;;;;;5093888;28;20035;-72
2022/10/15 03:46:04;;;;;;;62.28;32.97;;;7.40;99.90;;;;;;5093726;28;20028;-74
2022/10/15 03:48:30;;;;;;;65.43;33.15;;;7.40;99.90;;;;;;5093822;28;20065;-70
2022/10/15 03:50:56;;;;;;;55.80;31.63;;;7.40;99.90;;;;;;5093690;28;20028;-74
2022/10/15 03:53:22;;;;;;;65.25;31.70;;;7.50;99.90;;;;;;5092336;28;20028;-74
2022/10/15 03:55:48;;;;;;;59.10;30.70;;;7.50;99.90;;;;;;5093478;28;20104;-71
2022/10/15 03:58:14;;;;;;;57.63;33.03;;;7.50;99.90;;;;;;5093735;28;20445;-74
2022/10/15 04:00:43;;;;;;;57.75;32.88;;;7.50;99.90;;;;;;5093585;28;20032;-74
2022/10/15 04:03:09;;;;;;;69.05;31.95;;;7.50;99.90;;;;;;5093631;28;20063;-74
2022/10/15 04:05:35;;;;;;;54.63;30.73;;;7.50;99.90;;;;;;5093538;28;20028;-74
2022/10/15 04:08:02;;;;;;;58.60;31.30;;;7.50;99.90;;;;;;5093567;28;20039;-72
2022/10/15 04:10:28;;;;;;;54.42;31.70;;;7.50;99.90;;;;;;5093542;28;20396;-71
2022/10/15 04:12:54;;;;;;;53.78;29.25;;;7.50;99.90;;;;;;5093605;28;20028;-71
2022/10/15 04:15:20;;;;;;;54.60;28.40;;;7.50;99.90;;;;;;5093331;28;20024;-71
2022/10/15 04:17:45;;;;;;;55.17;29.30;;;7.40;99.90;;;;;;5093636;28;20123;-73
2022/10/15 04:20:11;;;;;;;47.78;27.25;;;7.40;99.90;;;;;;5091934;28;20020;-74
2022/10/15 04:22:37;;;;;;;54.80;29.70;;;7.30;99.90;;;;;;5093510;28;20020;-70
2022/10/15 04:25:03;;;;;;;55.05;29.15;;;7.30;99.90;;;;;;5093341;28;20043;-73
2022/10/15 04:27:28;;;;;;;55.38;31.20;;;7.30;99.90;;;;;;5093330;28;20060;-74
2022/10/15 04:29:54;;;;;;;51.13;28.27;;;7.30;99.90;;;;;;5093247;28;20024;-70
2022/10/15 04:32:20;;;;;;;54.50;28.95;;;7.20;99.90;;;;;;5093396;28;20058;-71
2022/10/15 04:34:46;;;;;;;48.80;26.95;;;7.20;99.90;;;;;;5093160;28;20497;-71
2022/10/15 04:37:12;;;;;;;53.38;28.75;;;7.20;99.90;;;;;;5093255;28;20024;-71
2022/10/15 04:39:38;;;;;;;53.03;27.40;;;7.20;99.90;;;;;;5093385;28;20020;-74
2022/10/15 04:42:03;;;;;;;44.47;26.77;;;7.10;99.90;;;;;;5092026;28;20392;-74
2022/10/15 04:44:29;;;;;;;46.53;25.40;;;7.00;99.90;;;;;;5093239;28;20153;-74
2022/10/15 04:46:54;;;;;;;46.25;26.38;;;7.00;99.90;;;;;;5091937;28;20107;-71
2022/10/15 04:49:20;;;;;;;51.15;26.40;;;7.00;99.90;;;;;;5094786;28;20032;-71
2022/10/15 04:51:46;;;;;;;45.50;25.42;;;7.00;99.90;;;;;;5095788;28;20427;-74
2022/10/15 04:54:11;;;;;;;45.22;25.58;;;6.90;99.90;;;;;;5095851;28;20051;-72
2022/10/15 04:56:37;;;;;;;43.65;25.27;;;6.90;99.90;;;;;;5096993;28;20164;-73
2022/10/15 04:59:06;;;;;;;46.67;25.73;;;6.80;99.90;;;;;;5095704;28;20027;-73
2022/10/15 05:01:32;;;;;;;45.72;26.80;;;6.80;99.90;;;;;;5095483;28;20024;-74
2022/10/15 05:03:58;;;;;;;54.15;29.73;;;6.80;99.90;;;;;;5096905;28;20020;-72
2022/10/15 05:06:23;;;;;;;46.75;26.45;;;6.80;99.90;;;;;;5096696;28;20031;-74
2022/10/15 05:08:50;;;;;;;44.88;25.55;;;6.80;99.90;;;;;;5096799;28;20039;-71
2022/10/15 05:11:18;;;;;;;47.95;26.65;;;6.90;99.90;;;;;;5095391;28;20024;-70
2022/10/15 05:13:44;;;;;;;49.55;26.77;;;6.90;99.90;;;;;;5095471;28;20024;-71
2022/10/15 05:16:16;;;;;;;43.38;25.02;;;6.90;99.90;;;;;;5096482;28;20092;-74
2022/10/15 05:18:43;;;;;;;50.90;25.55;;;7.00;99.90;;;;;;5096750;28;20377;-70
2022/10/15 05:21:10;;;;;;;46.78;25.73;;;7.00;99.90;;;;;;5096489;28;20432;-74
2022/10/15 05:23:36;;;;;;;40.47;24.63;;;6.90;99.90;;;;;;5096574;28;20024;-71
2022/10/15 05:26:04;;;;;;;46.33;24.88;;;6.90;99.90;;;;;;5096337;28;20043;-70
2022/10/15 05:28:30;;;;;;;41.88;25.17;;;6.90;99.90;;;;;;5096396;28;20046;-74
2022/10/15 05:30:56;;;;;;;44.65;25.27;;;6.90;99.90;;;;;;5094908;28;20020;-70
2022/10/15 05:33:21;;;;;;;45.97;26.58;;;6.90;99.90;;;;;;5096046;28;20027;-71
2022/10/15 05:35:47;;;;;;;44.90;25.30;;;6.90;99.90;;;;;;5096105;28;20051;-74
2022/10/15 05:38:13;;;;;;;43.90;24.90;;;7.00;99.90;;;;;;5096297;28;20101;-71
2022/10/15 05:40:38;;;;;;;48.08;27.58;;;7.00;99.90;;;;;;5096114;28;20389;-70
2022/10/15 05:43:04;;;;;;;52.85;28.23;;;7.00;99.90;;;;;;5096166;28;20031;-71
2022/10/15 05:45:29;;;;;;;51.55;28.90;;;7.00;99.90;;;;;;5095995;28;20032;-70
2022/10/15 05:47:55;;;;;;;47.42;28.27;;;7.00;99.90;;;;;;5096014;28;20115;-71
2022/10/15 05:50:22;;;;;;;49.75;28.67;;;7.10;99.90;;;;;;5096389;28;20078;-73
2022/10/15 05:52:48;;;;;;;55.55;31.75;;;7.20;99.90;;;;;;5116338;28;20019;-70
2022/10/15 05:55:13;;;;;;;47.78;27.70;;;7.20;99.90;;;;;;5116286;27;20094;-74
2022/10/15 05:57:39;;;;;;;52.72;29.25;;;7.30;99.90;;;;;;5116257;28;20148;-71
2022/10/15 06:00:06;;;;;;;49.80;27.55;;;7.30;99.90;;;;;;5115373;28;20353;-70
2022/10/15 06:02:31;;;;;;;53.03;30.10;;;7.40;99.90;;;;;;5115785;28;20020;-71
2022/10/15 06:04:57;;;;;;;49.42;28.67;;;7.50;99.90;;;;;;5114106;28;20031;-74
2022/10/15 06:07:23;;;;;;;50.03;28.13;;;7.60;99.90;;;;;;5114111;28;20016;-70
2022/10/15 06:09:48;;;;;;;49.83;28.98;;;7.70;99.90;;;;;;5115641;28;20067;-70
2022/10/15 06:12:14;;;;;;;48.00;26.88;;;7.80;99.90;;;;;;5115622;28;20030;-70
2022/10/15 06:14:39;;;;;;;50.40;27.98;;;7.90;99.90;;;;;;5106632;28;20032;-70
2022/10/15 06:17:05;;;;;;;46.20;25.98;;;8.10;99.90;;;;;;5095009;28;20020;-74
2022/10/15 06:19:30;;;;;;;49.65;25.80;;;8.20;99.90;;;;;;5095014;28;20473;-74
2022/10/15 06:21:56;;;;;;;43.97;23.42;;;8.40;99.90;;;;;;5094958;28;20028;-74
2022/10/15 06:24:22;;;;;;;49.67;24.42;;;8.60;99.90;;;;;;5093733;28;20024;-70
2022/10/15 06:26:48;;;;;;;43.05;24.00;;;8.80;99.90;;;;;;5094962;28;20020;-74
2022/10/15 06:29:13;;;;;;;39.60;22.98;;;9.00;99.90;;;;;;5094822;28;20365;-74
2022/10/15 06:31:39;;;;;;;38.53;22.02;;;9.20;99.90;;;;;;5094753;28;20106;-70
2022/10/15 06:34:04;;;;;;;40.45;23.73;;;9.40;99.90;;;;;;5094505;28;20024;-70
2022/10/15 06:36:30;;;;;;;37.17;21.27;;;9.50;99.90;;;;;;5094739;28;20032;-71
2022/10/15 06:38:55;;;;;;;32.83;20.38;;;9.60;99.90;;;;;;5094566;28;20028;-74
2022/10/15 06:41:21;;;;;;;36.25;21.10;;;9.70;99.90;;;;;;5092679;28;20020;-75
2022/10/15 06:43:50;;;;;;;32.40;21.05;;;9.80;99.90;;;;;;5093914;28;20103;-74
2022/10/15 06:46:15;;;;;;;36.53;20.00;;;9.90;99.90;;;;;;5105616;28;20473;-74
2022/10/15 06:48:41;;;;;;;32.05;18.88;;;10.00;99.90;;;;;;5114462;28;20081;-74
2022/10/15 06:51:06;;;;;;;30.95;18.40;;;10.00;99.90;;;;;;5114169;28;20533;-74
2022/10/15 06:53:32;;;;;;;27.70;19.08;;;10.10;99.90;;;;;;5114306;28;20057;-74
2022/10/15 06:56:00;;;;;;;31.77;19.08;;;10.20;99.90;;;;;;5114120;28;20020;-70
2022/10/15 06:58:26;;;;;;;28.95;18.73;;;10.20;99.90;;;;;;5114367;28;20034;-74
2022/10/15 07:00:51;;;;;;;35.17;20.02;;;10.40;99.90;;;;;;5113898;28;20031;-70
2022/10/15 07:03:17;;;;;;;36.15;20.70;;;10.50;99.90;;;;;;5114271;28;20024;-74
2022/10/15 07:05:42;;;;;;;31.23;18.98;;;10.70;99.90;;;;;;5113939;28;20035;-70
2022/10/15 07:08:08;;;;;;;33.83;20.77;;;10.90;99.90;;;;;;5112709;28;20074;-70
2022/10/15 07:10:34;;;;;;;34.17;19.77;;;11.10;99.90;;;;;;5113737;28;20049;-70
2022/10/15 07:13:00;;;;;;;35.70;18.45;;;11.30;99.90;;;;;;5113623;28;20031;-70
2022/10/15 07:15:27;;;;;;;29.13;19.13;;;11.40;99.90;;;;;;5098159;28;20032;-69
2022/10/15 07:17:55;;;;;;;30.17;19.25;;;11.50;99.90;;;;;;5093450;28;20019;-74
2022/10/15 07:20:22;;;;;;;32.78;20.63;;;11.60;99.90;;;;;;5093445;28;20103;-75
2022/10/15 07:22:48;;;;;;;30.45;18.38;;;11.70;99.90;;;;;;5092195;28;20028;-70
2022/10/15 07:25:14;;;;;;;27.08;19.40;;;11.80;99.90;;;;;;5093455;28;20024;-70
2022/10/15 07:27:39;;;;;;;30.48;19.00;;;11.80;99.90;;;;;;5093318;28;20367;-74
2022/10/15 07:30:07;;;;;;;30.88;20.15;;;11.90;99.90;;;;;;5101548;28;20140;-71
2022/10/15 07:32:33;;;;;;;27.20;17.98;;;12.00;99.90;;;;;;5113212;28;20106;-70
2022/10/15 07:34:59;;;;;;;29.77;19.08;;;12.10;99.90;;;;;;5112036;28;20052;-69
2022/10/15 07:37:24;;;;;;;31.30;19.27;;;12.10;99.90;;;;;;5112248;28;20366;-73
2022/10/15 07:39:50;;;;;;;29.00;19.40;;;12.10;99.90;;;;;;5113302;28;20095;-70
2022/10/15 07:42:15;;;;;;;27.80;18.63;;;12.10;99.90;;;;;;5113253;28;20016;-70
2022/10/15 07:44:41;;;;;;;27.95;17.60;;;12.20;99.90;;;;;;5113690;28;20148;-69
2022/10/15 07:47:07;;;;;;;30.98;20.70;;;12.20;99.90;;;;;;5112608;28;20054;-71
2022/10/15 07:49:32;;;;;;;27.33;16.88;;;12.30;99.90;;;;;;5113790;28;20033;-70
2022/10/15 07:51:58;;;;;;;29.95;19.38;;;12.40;99.90;;;;;;5114154;28;20020;-71
2022/10/15 07:54:24;;;;;;;27.73;18.30;;;12.50;99.90;;;;;;5114147;28;20027;-74
2022/10/15 07:56:49;;;;;;;31.88;19.08;;;12.80;99.90;;;;;;5111199;28;20063;-73
2022/10/15 07:59:15;;;;;;;34.17;18.48;;;13.00;99.90;;;;;;5111917;28;20027;-73
2022/10/15 08:01:40;;;;;;;29.75;19.17;;;13.10;99.90;;;;;;5112096;28;20494;-73
2022/10/15 08:04:06;;;;;;;29.30;19.75;;;13.30;99.90;;;;;;5094970;28;20012;-71
2022/10/15 08:06:32;;;;;;;27.73;18.17;;;13.50;99.90;;;;;;5092380;28;20031;-73
2022/10/15 08:08:57;;;;;;;26.92;17.52;;;13.70;99.90;;;;;;5090840;28;20086;-73
2022/10/15 08:11:23;;;;;;;37.45;22.35;;;13.80;99.90;;;;;;5093111;28;20030;-73
2022/10/15 08:13:50;;;;;;;25.00;17.27;;;14.00;99.90;;;;;;5092173;28;20016;-73
2022/10/15 08:16:18;;;;;;;23.85;17.02;;;14.20;99.90;;;;;;5093427;28;20473;-70
2022/10/15 08:18:44;;;;;;;28.60;17.42;;;14.40;99.90;;;;;;5092143;28;20107;-73
2022/10/15 08:21:10;;;;;;;25.65;17.42;;;14.60;99.90;;;;;;5092181;28;20135;-73
2022/10/15 08:23:36;;;;;;;26.52;17.17;;;14.70;99.90;;;;;;5092576;28;20381;-73
2022/10/15 08:26:02;;;;;;;22.88;15.98;;;14.60;99.90;;;;;;5097639;28;20027;-70
2022/10/15 08:28:29;;;;;;;24.00;16.25;;;14.70;99.90;;;;;;5114075;28;20135;-70
2022/10/15 08:30:57;;;;;;;23.92;16.63;;;14.80;99.90;;;;;;5102137;28;20020;-69
2022/10/15 08:33:22;;;;;;;27.92;18.27;;;14.70;99.90;;;;;;5096078;28;20008;-70
2022/10/15 08:35:48;;;;;;;35.47;21.73;;;14.80;99.90;;;;;;5097376;28;20157;-69
2022/10/15 08:38:13;;;;;;;25.20;17.58;;;15.00;99.90;;;;;;5097353;28;20091;-73
2022/10/15 08:40:45;;;;;;;24.70;17.45;;;15.10;99.90;;;;;;5097342;28;20183;-69
2022/10/15 08:43:25;;;;;;;28.95;19.42;;;15.20;99.90;;;;;;5097250;28;20050;-73
2022/10/15 08:45:56;;;;;;;24.35;16.98;;;15.30;99.90;;;;;;5107093;28;20027;-73
2022/10/15 08:48:48;;;;;;;25.98;18.10;;;15.30;98.80;;;;;;5117506;28;20066;-70
2022/10/15 08:51:19;;;;;;;26.45;18.38;;;15.40;99.40;;;;;;5113487;28;20035;-69
2022/10/15 08:53:52;;;;;;;21.50;15.02;;;15.60;96.30;;;;;;5117577;27;20104;-69
2022/10/15 08:56:26;;;;;;;;;;;15.60;93.90;;;;;;5117636;28;20028;-74
2022/10/15 08:59:14;;;;;;;23.67;15.43;;;15.60;95.10;;;;;;5096479;28;19915;-73
2022/10/15 09:01:59;;;;;;;22.35;14.80;;;15.60;90.50;;;;;;5097082;28;20024;-69
2022/10/15 09:04:40;;;;;;;24.65;16.88;;;15.60;94.40;;;;;;5112566;28;20107;-73
2022/10/15 09:07:17;;;;;;;18.90;14.85;;;15.50;90.40;;;;;;5117150;28;20027;-69
2022/10/15 09:09:52;;;;;;;21.02;15.38;;;15.60;89.60;;;;;;5115859;28;20027;-73
2022/10/15 09:12:27;;;;;;;20.52;14.93;;;15.70;89.60;;;;;;5117174;27;20110;-69
2022/10/15 09:14:54;;;;;;;21.55;15.07;;;15.70;89.80;;;;;;5106596;28;20024;-73
2022/10/15 09:17:23;;;;;;;32.15;21.40;;;15.80;92.40;;;;;;5096763;28;20485;-73
2022/10/15 09:19:55;;;;;;;21.92;14.32;;;15.90;92.80;;;;;;5096548;28;20028;-74
2022/10/15 09:22:28;;;;;;;24.13;15.82;;;15.90;89.30;;;;;;5096541;28;20048;-69
2022/10/15 09:24:54;;;;;;;18.67;15.00;;;16.00;87.20;;;;;;5096576;28;20024;-73
2022/10/15 09:27:37;;;;;;;24.65;17.25;;;16.00;87.00;;;;;;5099115;28;20545;-69
2022/10/15 09:30:23;;;;;;;24.30;16.50;;;16.10;88.60;;;;;;5107856;28;20020;-69
2022/10/15 09:32:57;;;;;;;26.27;16.08;;;16.20;89.50;;;;;;5096586;28;20074;-69
2022/10/15 09:35:31;;;;;;;29.17;17.00;;;16.40;86.10;;;;;;5095978;28;20048;-70
2022/10/15 09:38:02;;;;;;;21.38;14.55;;;16.50;85.80;;;;;;5096438;28;20066;-69
2022/10/15 09:41:06;;;;;;;23.65;16.73;;;16.50;81.80;;;;;;5096120;28;20024;-73
2022/10/15 09:43:36;;;;;;;20.67;15.38;;;16.60;85.30;;;;;;5096246;28;20016;-70
2022/10/15 09:46:03;;;;;;;19.30;14.43;;;16.60;82.10;;;;;;5096041;28;20035;-69
2022/10/15 09:48:55;;;;;;;20.02;14.60;;;16.60;81.00;;;;;;5094771;28;20032;-69
2022/10/15 09:51:44;;;;;;;26.50;17.98;;;16.70;81.10;;;;;;5084413;28;20028;-73
2022/10/15 09:54:45;;;;;;;18.17;14.18;;;16.80;81.90;;;;;;5095998;28;20032;-69
2022/10/15 09:57:13;;;;;;;21.00;14.90;;;16.80;82.10;;;;;;5072735;28;20039;-70
2022/10/15 09:59:51;;;;;;;21.20;14.10;;;16.90;82.40;;;;;;5095724;28;20024;-69
2022/10/15 10:02:19;;;;;;;25.00;16.00;;;16.90;81.70;;;;;;5095907;28;20069;-73
2022/10/15 10:04:44;;;;;;;20.60;13.68;;;16.90;82.60;;;;;;5094432;28;20028;-73
2022/10/15 10:07:30;;;;;;;18.08;12.52;;;16.90;80.90;;;;;;5095699;28;20028;-73
2022/10/15 10:09:59;;;;;;;17.48;13.90;;;16.90;78.90;;;;;;5103063;28;20085;-73
2022/10/15 10:12:27;;;;;;;19.35;14.27;;;16.90;79.70;;;;;;5114723;28;20016;-70
2022/10/15 10:15:17;;;;;;;18.88;12.43;;;16.90;79.40;;;;;;5105048;27;20058;-70
2022/10/15 10:17:52;;;;;;;17.85;13.02;;;16.90;80.80;;;;;;5095589;28;20027;-69
2022/10/15 10:20:19;;;;;;;15.95;12.07;;;16.90;81.80;;;;;;5095516;28;20024;-73
2022/10/15 10:22:45;;;;;;;22.45;15.85;;;17.00;81.80;;;;;;5106355;28;20038;-73
2022/10/15 10:25:29;;;;;;;19.95;13.45;;;17.00;81.50;;;;;;5115789;28;20020;-70
2022/10/15 10:28:14;;;;;;;21.15;12.45;;;17.10;78.20;;;;;;5115672;28;20155;-70
2022/10/15 10:30:55;;;;;;;15.65;10.95;;;17.00;76.50;;;;;;5101278;28;20024;-73
2022/10/15 10:33:36;;;;;;;16.10;11.48;;;17.00;74.50;;;;;;5095297;28;20028;-73
2022/10/15 10:36:05;;;;;;;15.53;10.93;;;17.20;75.00;;;;;;5095183;28;20044;-73
2022/10/15 10:38:39;;;;;;;17.98;11.88;;;17.30;74.50;;;;;;5094983;28;20258;-73
2022/10/15 10:41:08;;;;;;;16.70;11.82;;;17.40;75.30;;;;;;5095001;28;20056;-73
2022/10/15 10:43:39;;;;;;;14.13;10.82;;;17.50;73.90;;;;;;5094991;28;20457;-73
2022/10/15 10:46:17;;;;;;;15.05;11.13;;;17.60;72.30;;;;;;5094443;28;20030;-73
2022/10/15 10:48:48;;;;;;;29.00;15.15;;;17.60;72.00;;;;;;5094888;28;20040;-69
2022/10/15 10:51:32;;;;;;;20.17;11.18;;;17.60;70.70;;;;;;5094740;28;20028;-73
2022/10/15 10:53:59;;;;;;;17.52;10.27;;;17.50;69.30;;;;;;5114964;28;20151;-73
2022/10/15 10:56:35;;;;;;;13.55;10.85;;;17.50;69.60;;;;;;5115024;28;20024;-73
2022/10/15 10:59:12;;;;;;;14.15;9.77;;;17.40;69.90;;;;;;5113873;28;20016;-73
2022/10/15 11:01:38;;;;;;;12.13;9.43;;;17.40;70.30;;;;;;5113785;28;20055;-70
2022/10/15 11:04:03;;;;;;;13.10;9.70;;;17.40;69.10;;;;;;5115080;28;20437;-73
2022/10/15 11:06:44;;;;;;;16.80;10.80;;;17.30;69.10;;;;;;5114736;28;20028;-73
2022/10/15 11:09:22;;;;;;;15.18;10.05;;;17.30;69.70;;;;;;5114854;28;20047;-73
2022/10/15 11:11:56;;;;;;;14.05;9.55;;;17.30;69.50;;;;;;5113068;28;20074;-70
2022/10/15 11:14:38;;;;;;;17.85;10.70;;;17.20;69.80;;;;;;5108015;28;20020;-74
2022/10/15 11:17:14;;;;;;;14.02;10.60;;;17.20;70.90;;;;;;5094332;28;20031;-69
2022/10/15 11:20:25;;;;;;;14.43;10.70;;;17.20;71.00;;;;;;5094512;28;20028;-73
2022/10/15 11:23:09;;;;;;;13.48;8.82;;;17.10;71.60;;;;;;5084968;28;20085;-70
2022/10/15 11:25:43;;;;;;;15.30;9.68;;;17.00;73.70;;;;;;5114488;28;20012;-74
2022/10/15 11:28:35;;;;;;;19.52;10.45;;;17.00;76.20;;;;;;5114591;28;20110;-73
2022/10/15 11:31:16;;;;;;;16.70;9.80;;;16.90;75.90;;;;;;5096787;28;20076;-74
2022/10/15 11:33:44;;;;;;;15.25;10.32;;;16.90;76.40;;;;;;5092914;28;20023;-70
2022/10/15 11:36:10;;;;;;;12.63;9.30;;;16.80;79.20;;;;;;5093986;28;20508;-69
2022/10/15 11:39:02;;;;;;;15.15;10.25;;;16.80;83.00;;;;;;5093978;28;20055;-69
2022/10/15 11:42:03;;;;;;;15.25;9.77;;;16.90;83.10;;;;;;5104175;28;20369;-73
2022/10/15 11:44:53;;;;;;;13.55;10.77;;;16.90;83.20;;;;;;5114323;28;20027;-73
2022/10/15 11:47:32;;;;;;;15.88;11.43;;;16.90;85.50;;;;;;5114178;28;20043;-74
2022/10/15 11:50:14;;;;;;;12.50;9.48;;;17.00;83.80;;;;;;5114188;28;20067;-73
2022/10/15 11:52:47;;;;;;;12.43;9.55;;;17.00;81.90;;;;;;5113968;28;20047;-70
2022/10/15 11:55:19;;;;;;;15.93;11.00;;;17.10;82.60;;;;;;5114174;28;20077;-69
2022/10/15 11:57:47;;;;;;;16.17;10.50;;;17.10;80.40;;;;;;5113761;28;20027;-74
2022/10/15 12:00:30;;;;;;;13.27;8.80;;;17.10;81.10;;;;;;5095521;28;20024;-74
2022/10/15 12:03:06;;;;;;;13.48;9.48;;;17.20;76.70;;;;;;5093741;28;20020;-74
2022/10/15 12:05:40;;;;;;;13.52;9.18;;;17.10;77.40;;;;;;5092483;28;20037;-70
2022/10/15 12:08:11;;;;;;;14.55;9.50;;;17.10;75.80;;;;;;5093502;28;20093;-70
2022/10/15 12:10:55;;;;;;;12.10;8.27;;;17.10;77.20;;;;;;5093596;28;20077;-70
2022/10/15 12:13:48;;;;;;;18.52;8.45;;;17.00;76.00;;;;;;5093650;28;20534;-73
2022/10/15 12:16:35;;;;;;;16.17;9.30;;;17.00;75.90;;;;;;5073305;28;20016;-74
2022/10/15 12:19:23;;;;;;;12.45;8.38;;;17.00;76.50;;;;;;5073359;28;20358;-69
2022/10/15 12:21:54;;;;;;;12.75;8.95;;;16.90;75.50;;;;;;5073256;28;20474;-69
2022/10/15 12:24:39;;;;;;;11.70;9.13;;;17.00;75.30;;;;;;5110746;28;20034;-70
2022/10/15 12:27:15;;;;;;;13.55;9.55;;;16.90;76.10;;;;;;5113779;28;20020;-69
2022/10/15 12:29:41;;;;;;;16.48;10.02;;;16.90;76.40;;;;;;5107070;28;20036;-71
2022/10/15 12:32:28;;;;;;;11.85;8.65;;;16.90;74.90;;;;;;5093376;28;20047;-73
2022/10/15 12:34:59;;;;;;;11.75;8.55;;;16.90;75.40;;;;;;5099906;28;20052;-73
2022/10/15 12:37:30;;;;;;;15.10;9.05;;;17.00;74.70;;;;;;5113763;28;20384;-74
2022/10/15 12:40:05;;;;;;;12.43;8.60;;;17.00;75.50;;;;;;5113661;28;20023;-69
2022/10/15 12:42:38;;;;;;;12.45;7.95;;;17.10;74.30;;;;;;5113552;28;20016;-73
2022/10/15 12:45:07;;;;;;;13.00;8.57;;;17.10;73.60;;;;;;5113687;28;20562;-73
2022/10/15 12:47:44;;;;;;;17.35;9.45;;;17.10;72.20;;;;;;5113486;28;20122;-69
2022/10/15 12:50:24;;;;;;;17.80;9.90;;;17.10;72.40;;;;;;5112324;28;20057;-74